La Tuna Canyon, California
Current Conditions -  °F | °C
As of 12:53 PM on Wednesday 17 Dec 2014 (Local Time) from KBUR Reporting Station
Scattered Clouds Scattered Clouds  
Wind Chill: 61°   Ceiling: Unl
Heat Index: 61°   Visibility: 10mi
Dew Point: 41°   Wind: 7mph
Humidity: 48%   Direction: 260°W
Pressure: 30.04"   Gusts: NA
Location:  34.2294°N, 118.357°W
Report Text: KBUR 172053Z 26006KT 10SM SCT035 16/05 A3004 RMK AO2 SLP164 T01610050 56005 $
Loading
Personal Weather Stations






























Interactive Weather Map New forecast layout! Learn more

10-Day Weather Forecast

Advertisements
Track Severe Weather on mobile